Time;durP1;ratioP1;P1;durP2;ratioP2;P2;SDS_P1;SDS_P2;PMS_P1;PMS_P2;Temp;Humidity;BMP_temperature;BMP_pressure;BME280_temperature;BME280_humidity;BME280_pressure;Samples;Min_cycle;Max_cycle;Signal;HPM_P1;HPM_P2
2022/05/05 00:01:37;;;;;;;14.68;9.07;;;17.00;86.40;;;;;;5034171;28;20133;-75
2022/05/05 00:04:04;;;;;;;12.50;9.57;;;16.90;86.30;;;;;;5049147;28;20565;-75
2022/05/05 00:06:29;;;;;;;12.48;9.05;;;16.90;86.30;;;;;;5034099;28;20025;-75
2022/05/05 00:08:56;;;;;;;13.43;9.15;;;16.90;86.50;;;;;;5033818;28;20387;-76
2022/05/05 00:14:27;;;;;;;17.08;9.55;;;16.90;86.90;;;;;;5034215;28;20072;-75
2022/05/05 00:16:56;;;;;;;10.30;8.50;;;16.80;87.00;;;;;;5033647;28;20450;-75
2022/05/05 00:19:21;;;;;;;13.07;8.93;;;16.80;86.80;;;;;;5033519;28;20045;-74
2022/05/05 00:21:47;;;;;;;10.85;8.45;;;16.70;87.30;;;;;;5033601;28;20379;-75
2022/05/05 00:24:13;;;;;;;12.35;8.50;;;16.70;87.40;;;;;;5048871;28;20156;-75
2022/05/05 00:26:39;;;;;;;11.65;8.30;;;16.80;87.30;;;;;;5033806;28;20468;-75
2022/05/05 00:29:05;;;;;;;11.93;8.50;;;16.80;87.40;;;;;;5033729;28;20025;-75
2022/05/05 00:31:31;;;;;;;11.32;8.50;;;16.70;87.40;;;;;;5033978;28;20022;-75
2022/05/05 00:33:57;;;;;;;14.80;8.80;;;16.70;87.50;;;;;;5033756;28;20056;-74
2022/05/05 00:36:23;;;;;;;16.10;9.13;;;16.70;87.50;;;;;;5033122;28;20073;-74
2022/05/05 00:38:48;;;;;;;14.05;9.38;;;16.60;87.60;;;;;;5033253;28;20492;-74
2022/05/05 00:41:14;;;;;;;13.48;8.18;;;16.60;87.50;;;;;;5033298;28;20022;-74
2022/05/05 00:43:40;;;;;;;13.02;9.00;;;16.70;87.60;;;;;;5033328;28;20437;-75
2022/05/05 00:46:05;;;;;;;13.88;9.20;;;16.70;86.90;;;;;;5033338;28;20101;-74
2022/05/05 00:48:31;;;;;;;12.57;8.77;;;16.70;87.10;;;;;;5033312;28;20029;-74
2022/05/05 00:50:58;;;;;;;10.38;9.05;;;16.70;87.20;;;;;;5033264;28;20040;-75
2022/05/05 00:53:24;;;;;;;11.10;8.50;;;16.70;87.10;;;;;;5033172;28;20033;-74
2022/05/05 00:55:56;;;;;;;13.07;9.45;;;16.60;87.30;;;;;;5033150;28;20091;-74
2022/05/05 00:58:24;;;;;;;12.75;9.73;;;16.60;87.40;;;;;;5033173;28;20095;-75
2022/05/05 01:00:50;;;;;;;13.98;9.63;;;16.50;87.50;;;;;;5033250;28;20026;-75
2022/05/05 01:03:16;;;;;;;10.25;8.75;;;16.50;87.80;;;;;;5032945;28;20029;-75
2022/05/05 01:05:43;;;;;;;10.82;8.68;;;16.50;88.10;;;;;;5031692;28;20061;-74
2022/05/05 01:08:09;;;;;;;13.13;8.80;;;16.50;88.10;;;;;;5033086;28;20021;-74
2022/05/05 01:10:35;;;;;;;12.35;8.82;;;16.50;88.10;;;;;;5031979;28;20087;-74
2022/05/05 01:13:01;;;;;;;14.18;10.18;;;16.50;88.20;;;;;;5032978;28;20494;-76
2022/05/05 01:15:28;;;;;;;11.55;9.27;;;16.50;88.10;;;;;;5032961;28;20105;-74
2022/05/05 01:17:54;;;;;;;12.55;8.90;;;16.50;88.10;;;;;;5032830;28;20029;-75
2022/05/05 01:20:22;;;;;;;12.35;9.25;;;16.50;88.10;;;;;;5032986;28;20040;-74
2022/05/05 01:22:51;;;;;;;14.60;8.55;;;16.50;87.90;;;;;;5032927;28;20029;-74
2022/05/05 01:28:12;;;;;;;15.95;9.40;;;16.50;88.30;;;;;;5033068;28;20403;-74
2022/05/05 01:30:48;;;;;;;10.48;7.93;;;16.50;87.90;;;;;;5032683;28;20033;-75
2022/05/05 01:33:19;;;;;;;10.18;8.20;;;16.50;87.80;;;;;;5033108;28;20026;-74
2022/05/05 01:35:47;;;;;;;11.15;8.95;;;16.60;88.00;;;;;;5032556;28;20042;-74
2022/05/05 01:38:14;;;;;;;10.88;8.50;;;16.60;87.70;;;;;;5032761;28;20033;-75
2022/05/05 01:40:41;;;;;;;17.70;9.30;;;16.50;87.20;;;;;;5032728;28;20021;-74
2022/05/05 01:43:08;;;;;;;17.73;9.43;;;16.50;87.30;;;;;;5032599;28;20018;-74
2022/05/05 01:45:34;;;;;;;14.23;8.77;;;16.50;87.40;;;;;;5032715;28;20021;-75
2022/05/05 01:48:00;;;;;;;11.10;8.73;;;16.40;87.10;;;;;;5035237;28;20041;-75
2022/05/05 01:50:26;;;;;;;13.32;9.10;;;16.30;87.70;;;;;;5036398;28;20021;-74
2022/05/05 01:52:54;;;;;;;11.07;8.93;;;16.30;87.80;;;;;;5036472;28;20036;-75
2022/05/05 01:55:23;;;;;;;10.70;8.20;;;16.30;87.80;;;;;;5036214;28;20426;-75
2022/05/05 01:57:50;;;;;;;12.90;8.40;;;16.30;88.40;;;;;;5036038;28;20022;-75
2022/05/05 02:00:17;;;;;;;14.48;9.02;;;16.40;87.60;;;;;;5036230;28;20387;-74
2022/05/05 02:02:46;;;;;;;14.70;9.23;;;16.30;87.30;;;;;;5036388;28;20136;-73
2022/05/05 02:05:12;;;;;;;10.70;8.82;;;16.30;87.60;;;;;;5035900;28;20395;-75
2022/05/05 02:07:39;;;;;;;11.50;9.07;;;16.40;87.60;;;;;;5036160;28;20029;-76
2022/05/05 02:10:06;;;;;;;10.45;8.32;;;16.40;87.30;;;;;;5051337;28;20060;-76
2022/05/05 02:12:35;;;;;;;11.32;9.15;;;16.50;87.30;;;;;;5035860;28;20546;-75
2022/05/05 02:15:00;;;;;;;13.13;9.18;;;16.50;86.80;;;;;;5051910;28;20037;-75
2022/05/05 02:17:26;;;;;;;13.23;9.52;;;16.40;87.00;;;;;;5035915;28;20030;-75
2022/05/05 02:19:52;;;;;;;13.93;9.80;;;16.40;87.20;;;;;;5051192;28;20045;-75
2022/05/05 02:22:18;;;;;;;13.02;10.15;;;16.40;87.20;;;;;;5034627;28;20352;-75
2022/05/05 02:24:43;;;;;;;15.90;9.35;;;16.40;87.10;;;;;;5051041;28;20091;-74
2022/05/05 02:27:09;;;;;;;13.80;9.77;;;16.40;87.10;;;;;;5035689;28;20021;-75
2022/05/05 02:29:35;;;;;;;17.05;9.80;;;16.30;87.30;;;;;;5035538;28;20395;-75
2022/05/05 02:32:00;;;;;;;13.63;9.88;;;16.40;87.40;;;;;;5034355;28;20029;-75
2022/05/05 02:34:26;;;;;;;13.48;9.25;;;16.30;87.40;;;;;;5035664;28;20032;-76
2022/05/05 02:39:36;;;;;;;;;;;16.40;87.80;;;;;;5036366;28;20092;-74
2022/05/05 02:42:02;;;;;;;11.98;9.07;;;16.30;87.60;;;;;;5033965;28;19912;-76
2022/05/05 02:44:27;;;;;;;16.58;10.63;;;16.20;87.50;;;;;;5034032;28;20022;-74
2022/05/05 02:46:53;;;;;;;13.40;10.40;;;16.30;87.80;;;;;;5035497;28;20056;-74
2022/05/05 02:49:19;;;;;;;13.18;9.23;;;16.30;87.70;;;;;;5035426;28;20030;-75
2022/05/05 02:51:45;;;;;;;10.68;8.70;;;16.20;87.50;;;;;;5035206;28;20082;-75
2022/05/05 02:56:55;;;;;;;13.50;8.82;;;16.20;88.00;;;;;;5035353;28;20083;-74
2022/05/05 02:59:21;;;;;;;10.60;7.88;;;16.30;87.80;;;;;;5033404;28;20496;-75
2022/05/05 03:01:46;;;;;;;12.77;7.88;;;16.30;87.40;;;;;;5035152;28;20071;-76
2022/05/05 03:04:12;;;;;;;12.45;7.95;;;16.30;87.10;;;;;;5035196;28;20394;-75
2022/05/05 03:06:38;;;;;;;17.92;8.38;;;16.40;86.90;;;;;;5034806;28;20490;-74
2022/05/05 03:09:04;;;;;;;13.50;8.38;;;16.40;86.60;;;;;;5050229;28;20025;-75
2022/05/05 03:11:29;;;;;;;10.02;7.50;;;16.40;86.40;;;;;;5033774;28;20051;-75
2022/05/05 03:13:55;;;;;;;9.70;7.72;;;16.40;86.40;;;;;;5050519;28;20030;-75
2022/05/05 03:16:21;;;;;;;10.10;7.28;;;16.50;86.10;;;;;;5035145;28;20057;-75
2022/05/05 03:18:47;;;;;;;11.02;7.18;;;16.30;85.80;;;;;;5034636;28;20481;-76
2022/05/05 03:21:13;;;;;;;12.27;7.82;;;16.30;86.30;;;;;;5034528;28;20021;-75
2022/05/05 03:23:38;;;;;;;11.52;8.10;;;16.40;85.90;;;;;;5034610;28;20044;-75
2022/05/05 03:26:04;;;;;;;10.90;7.82;;;16.30;85.70;;;;;;5050219;28;20032;-75
2022/05/05 03:28:30;;;;;;;12.38;7.40;;;16.20;86.20;;;;;;5034920;28;20018;-76
2022/05/05 03:30:56;;;;;;;10.05;7.78;;;16.20;86.30;;;;;;5034729;28;20029;-75
2022/05/05 03:33:22;;;;;;;9.98;7.05;;;16.20;86.50;;;;;;5034679;28;20025;-75
2022/05/05 03:35:48;;;;;;;12.30;8.07;;;16.20;86.40;;;;;;5034511;28;20403;-74
2022/05/05 03:38:13;;;;;;;10.98;7.97;;;16.20;86.30;;;;;;5034851;28;20103;-75
2022/05/05 03:40:39;;;;;;;15.43;7.88;;;16.20;86.30;;;;;;5034481;28;20369;-75
2022/05/05 03:43:05;;;;;;;10.68;7.88;;;16.20;86.70;;;;;;5034399;28;20021;-74
2022/05/05 03:45:30;;;;;;;11.32;7.68;;;16.20;86.40;;;;;;5034211;28;20029;-75
2022/05/05 03:47:56;;;;;;;12.20;7.80;;;16.20;86.50;;;;;;5034744;28;20022;-74
2022/05/05 03:50:22;;;;;;;11.07;7.60;;;16.10;86.60;;;;;;5032881;28;20033;-75
2022/05/05 03:52:47;;;;;;;12.65;7.65;;;16.10;86.70;;;;;;5033031;28;20018;-75
2022/05/05 03:55:13;;;;;;;11.55;7.40;;;16.10;86.30;;;;;;5034041;28;20026;-75
2022/05/05 03:57:39;;;;;;;18.08;8.13;;;16.10;86.40;;;;;;5034190;28;20100;-75
2022/05/05 04:00:05;;;;;;;11.18;7.50;;;16.00;86.20;;;;;;5034023;28;20034;-75
2022/05/05 04:02:31;;;;;;;12.05;7.85;;;16.00;86.50;;;;;;5033907;28;20036;-76
2022/05/05 04:04:57;;;;;;;10.20;7.95;;;16.00;86.50;;;;;;5032526;28;20033;-75
2022/05/05 04:07:22;;;;;;;13.30;7.63;;;16.00;86.60;;;;;;5033965;28;20374;-75
2022/05/05 04:09:48;;;;;;;13.30;7.70;;;16.00;86.70;;;;;;5033333;28;20378;-76
2022/05/05 04:12:14;;;;;;;12.15;7.80;;;16.00;86.90;;;;;;5033805;28;20021;-75
2022/05/05 04:14:39;;;;;;;9.38;7.63;;;16.00;87.00;;;;;;5033899;28;20079;-75
2022/05/05 04:17:05;;;;;;;11.40;8.55;;;16.00;87.00;;;;;;5034077;28;20032;-74
2022/05/05 04:19:31;;;;;;;12.40;8.25;;;16.00;87.10;;;;;;5033815;28;20091;-75
2022/05/05 04:21:57;;;;;;;12.52;8.02;;;16.00;87.20;;;;;;5033626;28;20053;-75
2022/05/05 04:24:23;;;;;;;11.30;8.20;;;16.00;87.10;;;;;;5033517;28;20434;-76
2022/05/05 04:26:49;;;;;;;12.20;9.02;;;16.00;86.90;;;;;;5033617;28;20064;-75
2022/05/05 04:29:14;;;;;;;15.18;8.68;;;16.00;86.90;;;;;;5033701;28;20442;-75
2022/05/05 04:31:42;;;;;;;16.65;8.70;;;15.90;87.10;;;;;;5033960;28;20471;-75
2022/05/05 04:34:08;;;;;;;14.38;9.55;;;15.90;87.10;;;;;;5033460;28;20037;-75
2022/05/05 04:36:37;;;;;;;16.55;9.63;;;15.90;87.20;;;;;;5032185;28;20088;-75
2022/05/05 04:39:04;;;;;;;12.43;9.27;;;15.90;87.40;;;;;;5033321;28;20087;-75
2022/05/05 04:41:29;;;;;;;13.38;8.77;;;15.90;87.40;;;;;;5033531;28;20025;-75
2022/05/05 04:43:55;;;;;;;11.07;8.15;;;16.00;87.50;;;;;;5033028;28;20074;-75
2022/05/05 04:46:21;;;;;;;14.63;9.57;;;16.00;87.20;;;;;;5033541;28;20076;-76
2022/05/05 04:48:48;;;;;;;15.15;8.75;;;16.10;86.70;;;;;;5033357;28;20022;-76
2022/05/05 04:51:14;;;;;;;12.65;8.27;;;16.10;86.30;;;;;;5033320;28;20022;-76
2022/05/05 04:53:41;;;;;;;11.00;8.13;;;16.10;86.00;;;;;;5033354;28;20426;-75
2022/05/05 04:56:10;;;;;;;12.48;8.73;;;16.10;85.90;;;;;;5033098;28;20032;-75
2022/05/05 04:58:36;;;;;;;12.50;8.65;;;16.10;86.20;;;;;;5048626;28;20540;-75
2022/05/05 05:01:03;;;;;;;16.70;8.13;;;16.10;86.20;;;;;;5033459;28;20021;-76
2022/05/05 05:03:35;;;;;;;14.73;8.57;;;16.10;85.90;;;;;;5033375;28;20566;-76
2022/05/05 05:06:06;;;;;;;13.15;8.50;;;16.10;85.70;;;;;;5033120;28;20021;-75
2022/05/05 05:08:34;;;;;;;15.38;8.32;;;16.10;85.80;;;;;;5033164;28;20135;-75
2022/05/05 05:11:00;;;;;;;12.75;8.82;;;16.10;86.00;;;;;;5033596;28;20017;-76
2022/05/05 05:13:26;;;;;;;12.60;8.48;;;16.10;85.80;;;;;;5033282;28;20030;-75
2022/05/05 05:15:51;;;;;;;16.90;8.38;;;16.10;86.00;;;;;;5032971;28;20109;-74
2022/05/05 05:18:17;;;;;;;12.95;8.00;;;16.20;85.90;;;;;;5031712;28;20116;-75
2022/05/05 05:20:43;;;;;;;11.63;8.27;;;16.20;86.00;;;;;;5031897;28;20021;-76
2022/05/05 05:23:09;;;;;;;12.07;8.05;;;16.20;85.90;;;;;;5037127;28;20134;-75
2022/05/05 05:25:35;;;;;;;13.13;8.70;;;16.30;85.60;;;;;;5035427;28;20040;-76
2022/05/05 05:28:01;;;;;;;13.77;9.38;;;16.40;85.40;;;;;;5036869;28;20021;-78
2022/05/05 05:30:26;;;;;;;12.95;9.45;;;16.50;85.20;;;;;;5036849;28;20033;-75
2022/05/05 05:32:52;;;;;;;13.77;9.00;;;16.50;85.10;;;;;;5036842;28;20044;-77
2022/05/05 05:35:19;;;;;;;24.20;9.95;;;16.60;85.10;;;;;;5035433;28;20395;-76
2022/05/05 05:37:45;;;;;;;20.33;10.20;;;16.60;85.00;;;;;;5035512;28;20075;-74
2022/05/05 05:40:11;;;;;;;11.20;8.85;;;16.70;84.50;;;;;;5036757;28;20037;-75
2022/05/05 05:42:36;;;;;;;14.60;8.85;;;16.70;84.80;;;;;;5035230;28;20109;-76
2022/05/05 05:45:03;;;;;;;16.88;9.20;;;16.80;84.60;;;;;;5036402;28;20108;-76
2022/05/05 05:47:29;;;;;;;11.70;9.35;;;16.80;84.60;;;;;;5036482;28;20111;-74
2022/05/05 05:49:55;;;;;;;13.30;9.73;;;16.70;84.80;;;;;;5036386;28;20037;-75
2022/05/05 05:52:21;;;;;;;14.48;9.30;;;16.70;84.60;;;;;;5051646;28;20030;-75
2022/05/05 05:54:46;;;;;;;19.02;10.77;;;16.70;84.80;;;;;;5035964;28;20082;-75
2022/05/05 05:57:12;;;;;;;13.25;9.13;;;16.80;84.60;;;;;;5036142;28;20021;-74
2022/05/05 05:59:38;;;;;;;12.23;9.50;;;16.80;84.00;;;;;;5034791;28;20029;-76
2022/05/05 06:04:49;;;;;;;12.43;7.85;;;16.80;83.90;;;;;;5036021;28;20044;-76
2022/05/05 06:07:14;;;;;;;13.80;8.18;;;16.70;83.50;;;;;;5035611;28;20033;-76
2022/05/05 06:09:40;;;;;;;13.63;7.95;;;16.70;83.00;;;;;;5051077;28;20084;-76
2022/05/05 06:12:06;;;;;;;18.27;8.52;;;16.70;83.10;;;;;;5036076;28;20109;-76
2022/05/05 06:14:32;;;;;;;18.30;7.88;;;16.70;82.70;;;;;;5035951;28;20044;-74
2022/05/05 06:16:57;;;;;;;11.65;6.53;;;16.70;82.30;;;;;;5036081;28;20025;-75
2022/05/05 06:19:23;;;;;;;14.20;7.10;;;16.70;82.00;;;;;;5035715;28;20120;-76
2022/05/05 06:21:50;;;;;;;14.23;6.88;;;16.70;80.90;;;;;;5034249;28;20383;-77
2022/05/05 06:24:15;;;;;;;11.68;7.15;;;16.70;80.30;;;;;;5035830;28;20026;-75
2022/05/05 06:26:41;;;;;;;15.38;7.25;;;16.70;80.60;;;;;;5050693;28;20390;-75
2022/05/05 06:29:07;;;;;;;15.88;7.95;;;16.70;80.50;;;;;;5035580;28;20029;-76
2022/05/05 06:31:33;;;;;;;15.13;8.73;;;16.80;80.70;;;;;;5034082;28;20022;-75
2022/05/05 06:33:58;;;;;;;16.25;8.80;;;16.70;80.60;;;;;;5033239;28;20033;-74
2022/05/05 06:36:24;;;;;;;15.50;8.50;;;16.70;81.40;;;;;;5034930;28;20136;-76
2022/05/05 06:38:53;;;;;;;30.98;10.18;;;16.60;81.70;;;;;;5033856;28;20383;-77
2022/05/05 06:41:20;;;;;;;13.77;8.80;;;16.60;82.00;;;;;;5035604;28;20033;-75
2022/05/05 06:43:46;;;;;;;37.45;12.05;;;16.60;82.10;;;;;;5050220;28;20378;-74
2022/05/05 06:46:12;;;;;;;68.70;15.02;;;16.70;82.30;;;;;;5035213;28;20037;-76
2022/05/05 06:48:41;;;;;;;35.17;10.85;;;16.70;82.70;;;;;;5035188;28;20025;-78
2022/05/05 06:51:06;;;;;;;25.73;8.95;;;16.70;83.00;;;;;;5050161;28;20029;-77
2022/05/05 06:53:32;;;;;;;16.73;8.57;;;16.70;82.80;;;;;;5034833;28;20024;-75
2022/05/05 06:55:58;;;;;;;23.33;8.85;;;16.70;82.50;;;;;;5034774;28;20424;-77
2022/05/05 06:58:25;;;;;;;22.50;9.10;;;16.80;82.50;;;;;;5035110;28;20076;-76
2022/05/05 07:03:37;;;;;;;27.33;9.35;;;16.80;82.20;;;;;;5035065;28;20080;-75
2022/05/05 07:06:03;;;;;;;40.05;11.68;;;16.80;82.10;;;;;;5035113;28;20068;-76
2022/05/05 07:10:52;;;;;;;29.77;9.05;;;16.80;82.00;;;;;;5034923;28;20433;-75
2022/05/05 07:11:15;;;;;;;22.95;9.85;;;16.80;82.30;;;;;;5034773;28;20084;-76
2022/05/05 07:13:41;;;;;;;25.33;9.02;;;16.80;82.60;;;;;;5034982;28;20071;-76
2022/05/05 07:16:06;;;;;;;16.48;7.72;;;16.80;82.60;;;;;;5034724;28;20029;-77
2022/05/05 07:18:32;;;;;;;24.98;9.75;;;16.80;82.40;;;;;;5034552;28;20131;-75
2022/05/05 07:20:58;;;;;;;14.90;8.00;;;16.80;81.90;;;;;;5033077;28;20022;-76
2022/05/05 07:23:24;;;;;;;15.85;8.63;;;16.90;81.20;;;;;;5034165;28;20431;-76
2022/05/05 07:25:50;;;;;;;13.65;7.40;;;16.90;81.20;;;;;;5033079;28;20025;-76
2022/05/05 07:28:16;;;;;;;15.77;7.75;;;16.90;80.50;;;;;;5034370;28;20071;-76
2022/05/05 07:30:42;;;;;;;11.57;7.50;;;17.00;80.30;;;;;;5034317;28;20037;-75
2022/05/05 07:33:07;;;;;;;15.45;8.05;;;17.00;79.50;;;;;;5049633;28;20048;-77
2022/05/05 07:35:33;;;;;;;15.98;7.85;;;17.10;79.50;;;;;;5034594;28;20482;-75
2022/05/05 07:37:59;;;;;;;15.90;8.80;;;17.20;78.90;;;;;;5034908;28;20104;-76
2022/05/05 07:40:25;;;;;;;16.40;7.93;;;17.20;78.90;;;;;;5034486;28;20424;-75
2022/05/05 07:42:51;;;;;;;16.80;10.32;;;17.20;78.90;;;;;;5049306;28;20071;-76
2022/05/05 07:45:17;;;;;;;17.92;8.88;;;17.10;79.00;;;;;;5048161;28;20025;-77
2022/05/05 07:47:42;;;;;;;16.83;8.60;;;17.20;79.30;;;;;;5034185;28;20024;-77
2022/05/05 07:50:09;;;;;;;14.02;8.18;;;17.20;79.20;;;;;;5034150;28;20037;-76
2022/05/05 07:52:35;;;;;;;23.00;10.32;;;17.20;79.00;;;;;;5034010;28;20096;-75
2022/05/05 07:55:00;;;;;;;17.35;9.23;;;17.30;79.00;;;;;;5033705;28;20176;-76
2022/05/05 07:57:27;;;;;;;12.68;8.70;;;17.30;78.80;;;;;;5033704;28;20018;-75
2022/05/05 07:59:54;;;;;;;24.17;9.98;;;17.30;78.60;;;;;;5033725;28;20044;-75
2022/05/05 08:02:20;;;;;;;14.50;8.43;;;17.30;79.30;;;;;;5034136;28;20108;-75
2022/05/05 08:04:46;;;;;;;16.88;8.27;;;17.40;78.90;;;;;;5032705;28;20029;-75
2022/05/05 08:07:12;;;;;;;16.02;9.68;;;17.40;78.60;;;;;;5049240;28;20087;-75
2022/05/05 08:09:39;;;;;;;16.65;8.48;;;17.30;78.50;;;;;;5033793;28;20023;-75
2022/05/05 08:12:06;;;;;;;16.83;9.55;;;17.30;78.80;;;;;;5033912;28;20048;-77
2022/05/05 08:14:32;;;;;;;18.05;9.60;;;17.30;79.00;;;;;;5033644;28;20021;-78
2022/05/05 08:16:58;;;;;;;14.88;9.00;;;17.30;79.10;;;;;;5033456;28;20032;-76
2022/05/05 08:19:24;;;;;;;17.48;9.27;;;17.30;79.40;;;;;;5032082;28;20034;-75
2022/05/05 08:21:50;;;;;;;15.95;9.55;;;17.30;79.30;;;;;;5033301;28;20021;-75
2022/05/05 08:29:44;;;;;;;13.68;9.68;;;17.30;80.10;;;;;;5033879;28;20036;-75
2022/05/05 08:32:10;;;;;;;17.83;9.38;;;17.20;79.20;;;;;;5048452;28;20029;-75
2022/05/05 08:34:36;;;;;;;14.68;9.18;;;17.20;79.40;;;;;;5033050;28;20064;-76
2022/05/05 08:37:03;;;;;;;18.30;9.25;;;17.20;79.30;;;;;;5048132;28;20056;-75
2022/05/05 08:39:30;;;;;;;15.68;10.15;;;17.30;79.60;;;;;;5032827;28;20037;-76
2022/05/05 08:41:56;;;;;;;14.82;9.23;;;17.30;79.70;;;;;;5032910;28;20030;-77
2022/05/05 08:44:22;;;;;;;17.60;9.00;;;17.30;79.10;;;;;;5047985;28;20022;-76
2022/05/05 08:46:50;;;;;;;14.95;8.88;;;17.40;79.50;;;;;;5048292;28;20025;-75
2022/05/05 08:49:20;;;;;;;15.90;7.97;;;17.40;79.50;;;;;;5033051;28;20104;-75
2022/05/05 08:51:49;;;;;;;19.17;8.18;;;17.40;78.80;;;;;;5033007;28;20022;-75
2022/05/05 08:54:16;;;;;;;18.60;9.32;;;17.50;78.30;;;;;;5033094;28;20037;-75
2022/05/05 08:56:50;;;;;;;25.75;9.90;;;17.50;78.00;;;;;;5032607;28;20033;-76
2022/05/05 08:59:17;;;;;;;22.92;9.13;;;17.60;77.40;;;;;;5032986;28;20037;-75
2022/05/05 09:01:43;;;;;;;20.48;9.57;;;17.70;76.50;;;;;;5048347;28;20025;-75
2022/05/05 09:04:09;;;;;;;20.75;9.13;;;17.80;76.20;;;;;;5048173;28;20032;-76
2022/05/05 09:06:51;;;;;;;24.42;11.88;;;17.90;76.30;;;;;;5047997;28;20025;-75
2022/05/05 09:09:31;;;;;;;21.67;10.95;;;18.00;77.60;;;;;;5033005;28;20053;-76
2022/05/05 09:12:16;;;;;;;20.02;12.02;;;18.10;77.70;;;;;;5031537;28;20494;-74
2022/05/05 09:14:50;;;;;;;29.55;11.15;;;18.30;77.50;;;;;;5032515;28;20227;-76
2022/05/05 09:17:22;;;;;;;;;;;18.30;75.30;;;;;;5033182;28;20025;-78
2022/05/05 09:19:50;;;;;;;34.40;11.07;;;18.30;75.40;;;;;;5031905;28;20431;-80
2022/05/05 09:22:19;;;;;;;19.73;8.90;;;18.40;73.90;;;;;;5048123;28;20026;-77
2022/05/05 09:24:49;;;;;;;17.75;10.85;;;18.50;73.40;;;;;;5032682;28;20330;-81
2022/05/05 09:27:16;;;;;;;19.55;10.75;;;18.60;73.10;;;;;;5032324;28;20021;-77
2022/05/05 09:29:42;;;;;;;17.75;10.15;;;18.60;73.40;;;;;;5032651;28;20087;-80
2022/05/05 09:32:12;;;;;;;18.40;11.20;;;18.60;73.40;;;;;;5032677;28;20022;-78
2022/05/05 09:34:41;;;;;;;18.75;10.07;;;18.60;73.70;;;;;;5032587;28;20100;-81
2022/05/05 09:37:22;;;;;;;16.17;10.48;;;18.60;74.30;;;;;;5033038;28;20061;-80
2022/05/05 09:39:54;;;;;;;18.70;10.30;;;18.50;74.50;;;;;;5032570;28;20479;-74
2022/05/05 09:42:34;;;;;;;16.20;10.07;;;18.50;75.20;;;;;;5031340;28;20440;-81
2022/05/05 09:45:16;;;;;;;21.27;10.85;;;18.50;74.70;;;;;;5030906;28;20552;-78
2022/05/05 09:47:43;;;;;;;17.05;10.48;;;18.50;76.20;;;;;;5032679;28;20116;-74
2022/05/05 09:50:12;;;;;;;22.92;10.52;;;18.50;75.50;;;;;;5032416;28;20113;-74
2022/05/05 09:58:16;;;;;;;16.23;10.68;;;18.40;76.00;;;;;;5032502;28;20045;-76
2022/05/05 10:00:58;;;;;;;34.35;12.10;;;18.30;76.40;;;;;;5032215;28;20041;-76
2022/05/05 10:04:00;;;;;;;27.75;11.38;;;18.30;76.70;;;;;;5032332;28;20021;-76
2022/05/05 10:06:43;;;;;;;17.75;9.63;;;18.30;77.10;;;;;;5028700;28;20029;-78
2022/05/05 10:09:14;;;;;;;31.80;10.10;;;18.40;76.50;;;;;;5033855;28;20021;-82
2022/05/05 10:11:40;;;;;;;57.17;11.90;;;18.50;76.20;;;;;;5036227;28;20421;-81
2022/05/05 10:14:09;;;;;;;57.88;13.48;;;18.50;76.00;;;;;;5036467;28;20028;-78
2022/05/05 10:16:39;;;;;;;21.30;10.20;;;18.50;75.80;;;;;;5035854;28;20033;-79
2022/05/05 10:19:07;;;;;;;23.98;10.55;;;18.60;76.70;;;;;;5034584;28;20183;-80
2022/05/05 10:21:59;;;;;;;17.17;9.48;;;18.70;75.10;;;;;;5051029;28;20026;-80
2022/05/05 10:24:38;;;;;;;21.70;9.05;;;18.80;75.60;;;;;;5034546;28;20359;-77
2022/05/05 10:27:04;;;;;;;23.77;10.82;;;18.90;74.60;;;;;;5035650;28;20104;-81
2022/05/05 10:29:35;;;;;;;64.05;13.70;;;19.00;74.30;;;;;;5050853;28;20110;-79
2022/05/05 10:32:19;;;;;;;43.67;11.63;;;19.10;74.40;;;;;;5050994;28;20033;-75
2022/05/05 10:34:47;;;;;;;35.92;10.38;;;19.20;73.70;;;;;;5035224;28;20032;-72
2022/05/05 10:37:20;;;;;;;18.92;10.75;;;19.30;73.60;;;;;;5035617;28;20057;-75
2022/05/05 10:39:46;;;;;;;;;;;19.40;72.70;;;;;;5034929;28;20038;-75
2022/05/05 10:42:21;;;;;;;18.60;8.88;;;19.50;72.60;;;;;;5035663;28;19909;-77
2022/05/05 10:45:08;;;;;;;17.92;10.32;;;19.60;72.80;;;;;;5033737;28;20139;-79
2022/05/05 10:47:54;;;;;;;16.60;9.35;;;19.70;71.90;;;;;;5050909;28;20379;-82
2022/05/05 10:50:39;;;;;;;14.95;9.05;;;19.70;72.10;;;;;;5050399;28;20394;-70
2022/05/05 10:53:06;;;;;;;17.70;8.48;;;19.70;71.80;;;;;;5034983;28;20029;-75
2022/05/05 10:55:45;;;;;;;37.38;10.23;;;19.70;71.50;;;;;;5035081;28;20032;-82
2022/05/05 10:58:33;;;;;;;23.85;9.40;;;19.60;71.70;;;;;;5035559;28;20104;-79
2022/05/05 11:00:59;;;;;;;17.58;9.27;;;19.60;71.40;;;;;;5050000;28;20120;-79
2022/05/05 11:03:25;;;;;;;17.02;8.82;;;19.50;71.90;;;;;;5035199;28;20049;-83
2022/05/05 11:05:50;;;;;;;17.92;8.63;;;19.40;71.90;;;;;;5035161;28;20467;-72
2022/05/05 11:08:19;;;;;;;13.43;8.05;;;19.30;71.80;;;;;;5035153;28;20109;-78
2022/05/05 11:13:43;;;;;;;15.50;8.50;;;19.30;72.10;;;;;;5034274;28;20092;-77
2022/05/05 11:22:03;;;;;;;12.48;8.35;;;19.40;71.20;;;;;;5034483;28;20033;-77
2022/05/05 11:24:30;;;;;;;14.80;8.15;;;19.50;70.20;;;;;;5049995;28;20029;-77
2022/05/05 11:26:56;;;;;;;13.45;8.45;;;19.60;70.10;;;;;;5035555;28;20122;-76
2022/05/05 11:29:22;;;;;;;16.98;8.60;;;19.70;70.70;;;;;;5035573;28;20065;-78
2022/05/05 11:32:08;;;;;;;19.20;8.68;;;19.80;70.40;;;;;;5037057;28;20029;-77
2022/05/05 11:34:39;;;;;;;17.35;9.23;;;19.80;69.80;;;;;;5050782;28;20051;-78
2022/05/05 11:37:07;;;;;;;16.00;9.25;;;19.80;69.10;;;;;;5049535;28;20446;-75
2022/05/05 11:39:34;;;;;;;20.50;9.43;;;19.70;69.30;;;;;;5034439;28;20037;-81
2022/05/05 11:42:07;;;;;;;48.40;12.82;;;19.70;69.10;;;;;;5034964;28;20494;-76
2022/05/05 11:44:41;;;;;;;19.75;10.80;;;19.70;69.20;;;;;;5034322;28;20036;-81
2022/05/05 11:47:14;;;;;;;;;;;19.80;68.90;;;;;;5034145;28;20030;-72
2022/05/05 11:49:43;;;;;;;13.50;8.13;;;19.80;69.00;;;;;;5033995;28;19927;-74
2022/05/05 11:52:14;;;;;;;33.08;10.52;;;19.90;68.70;;;;;;5049044;28;20026;-72
2022/05/05 11:54:39;;;;;;;27.40;10.05;;;19.90;68.50;;;;;;5033664;28;20068;-74
2022/05/05 11:57:05;;;;;;;20.58;9.95;;;20.00;68.10;;;;;;5033824;28;20359;-75
2022/05/05 12:02:23;;;;;;;12.60;8.05;;;20.10;67.70;;;;;;5033650;28;20039;-75
2022/05/05 12:04:57;;;;;;;14.60;8.48;;;20.00;67.70;;;;;;5033734;28;20025;-77
2022/05/05 12:07:24;;;;;;;11.10;8.05;;;20.00;67.60;;;;;;5048880;28;20371;-75
2022/05/05 12:09:51;;;;;;;36.78;11.68;;;19.90;68.00;;;;;;5032251;28;20029;-76
2022/05/05 12:12:19;;;;;;;14.43;8.75;;;19.90;67.60;;;;;;5033629;28;20400;-74
2022/05/05 12:14:56;;;;;;;13.63;9.40;;;19.90;68.20;;;;;;5033582;28;20433;-77
2022/05/05 12:17:32;;;;;;;12.88;8.13;;;19.90;67.40;;;;;;5033549;28;20148;-76
2022/05/05 12:20:05;;;;;;;12.57;8.27;;;20.00;67.40;;;;;;5032883;28;20045;-75
2022/05/05 12:22:37;;;;;;;23.65;9.23;;;20.00;68.40;;;;;;5033056;28;20367;-71
2022/05/05 12:25:14;;;;;;;16.40;8.47;;;20.00;67.20;;;;;;5034782;28;20025;-73
2022/05/05 12:27:53;;;;;;;15.73;8.25;;;20.10;67.60;;;;;;5033517;28;20064;-70
2022/05/05 12:30:36;;;;;;;13.70;8.20;;;20.30;66.90;;;;;;5033022;28;20033;-70
2022/05/05 12:33:09;;;;;;;11.43;7.93;;;20.70;65.90;;;;;;5033470;28;20060;-72
2022/05/05 12:35:40;;;;;;;9.80;5.50;;;21.00;64.90;;;;;;5032962;28;20492;-73
2022/05/05 12:38:08;;;;;;;16.63;7.97;;;21.20;65.90;;;;;;5033254;28;20091;-76
2022/05/05 12:40:40;;;;;;;10.60;7.38;;;21.30;65.70;;;;;;5033315;28;20029;-75
2022/05/05 12:43:13;;;;;;;10.90;6.90;;;21.30;64.90;;;;;;5033159;28;20061;-74
2022/05/05 12:45:40;;;;;;;15.43;6.82;;;21.30;62.60;;;;;;5032918;28;20693;-73
2022/05/05 12:48:08;;;;;;;12.88;7.78;;;21.20;64.70;;;;;;5033070;28;20486;-72
2022/05/05 12:50:38;;;;;;;16.10;7.60;;;21.20;63.80;;;;;;5031849;28;20040;-75
2022/05/05 13:01:45;;;;;;;12.05;7.35;;;21.50;64.00;;;;;;5032847;28;20032;-78
2022/05/05 13:04:14;;;;;;;12.60;7.07;;;21.50;63.60;;;;;;5032726;28;20104;-78
2022/05/05 13:06:42;;;;;;;19.98;7.35;;;21.50;63.40;;;;;;5032802;28;20040;-78
2022/05/05 13:09:08;;;;;;;20.73;7.38;;;21.60;63.40;;;;;;5032644;28;20066;-74
2022/05/05 13:11:39;;;;;;;13.50;7.22;;;21.60;63.50;;;;;;5032751;28;20388;-76
2022/05/05 13:14:05;;;;;;;17.85;7.78;;;21.70;63.30;;;;;;5032902;28;20526;-75
2022/05/05 13:16:32;;;;;;;17.08;7.93;;;21.80;62.90;;;;;;5032669;28;20041;-75
2022/05/05 13:18:59;;;;;;;19.73;8.18;;;21.80;62.70;;;;;;5031333;28;20026;-76
2022/05/05 13:21:27;;;;;;;14.40;8.15;;;21.70;62.80;;;;;;5048130;28;20048;-76
2022/05/05 13:23:53;;;;;;;22.00;7.43;;;21.70;63.20;;;;;;5032671;28;20025;-75
2022/05/05 13:26:19;;;;;;;12.35;7.80;;;21.70;63.40;;;;;;5032900;28;20029;-75
2022/05/05 13:28:45;;;;;;;14.40;7.82;;;21.60;63.70;;;;;;5032742;28;20481;-75